sensor_id;sensor_type;location;lat;lon;timestamp;P1;durP1;ratioP1;P2;durP2;ratioP2
50122;SDS011;36021;48.670;6.184;2023-04-06T00:02:09;10.00;;;4.57;;
50122;SDS011;36021;48.670;6.184;2023-04-06T00:04:36;11.65;;;5.03;;
50122;SDS011;36021;48.670;6.184;2023-04-06T00:07:02;8.98;;;4.60;;
50122;SDS011;36021;48.670;6.184;2023-04-06T00:09:30;14.15;;;4.97;;
50122;SDS011;36021;48.670;6.184;2023-04-06T00:11:55;11.18;;;4.97;;
50122;SDS011;36021;48.670;6.184;2023-04-06T00:14:21;10.85;;;5.80;;
50122;SDS011;36021;48.670;6.184;2023-04-06T00:16:47;12.50;;;4.65;;
50122;SDS011;36021;48.670;6.184;2023-04-06T00:19:13;13.30;;;5.25;;
50122;SDS011;36021;48.670;6.184;2023-04-06T00:21:38;15.52;;;5.30;;
50122;SDS011;36021;48.670;6.184;2023-04-06T00:24:04;18.75;;;4.88;;
50122;SDS011;36021;48.670;6.184;2023-04-06T00:26:30;13.00;;;6.13;;
50122;SDS011;36021;48.670;6.184;2023-04-06T00:28:56;10.25;;;5.00;;
50122;SDS011;36021;48.670;6.184;2023-04-06T00:31:23;11.00;;;5.15;;
50122;SDS011;36021;48.670;6.184;2023-04-06T00:33:49;11.60;;;5.15;;
50122;SDS011;36021;48.670;6.184;2023-04-06T00:36:19;10.35;;;5.40;;
50122;SDS011;36021;48.670;6.184;2023-04-06T00:38:44;9.85;;;5.03;;
50122;SDS011;36021;48.670;6.184;2023-04-06T00:41:11;12.70;;;6.15;;
50122;SDS011;36021;48.670;6.184;2023-04-06T00:43:36;9.15;;;4.50;;
50122;SDS011;36021;48.670;6.184;2023-04-06T00:46:02;13.18;;;5.22;;
50122;SDS011;36021;48.670;6.184;2023-04-06T00:48:28;12.70;;;4.90;;
50122;SDS011;36021;48.670;6.184;2023-04-06T00:50:56;10.95;;;4.90;;
50122;SDS011;36021;48.670;6.184;2023-04-06T00:53:22;11.48;;;4.63;;
50122;SDS011;36021;48.670;6.184;2023-04-06T00:55:49;12.60;;;5.15;;
50122;SDS011;36021;48.670;6.184;2023-04-06T00:58:15;7.13;;;4.57;;
50122;SDS011;36021;48.670;6.184;2023-04-06T01:00:48;13.82;;;5.15;;
50122;SDS011;36021;48.670;6.184;2023-04-06T01:03:17;12.50;;;5.20;;
50122;SDS011;36021;48.670;6.184;2023-04-06T01:05:43;11.52;;;5.20;;
50122;SDS011;36021;48.670;6.184;2023-04-06T01:08:20;11.98;;;5.20;;
50122;SDS011;36021;48.670;6.184;2023-04-06T01:10:46;11.80;;;5.68;;
50122;SDS011;36021;48.670;6.184;2023-04-06T01:13:22;12.50;;;5.82;;
50122;SDS011;36021;48.670;6.184;2023-04-06T01:16:00;13.10;;;6.13;;
50122;SDS011;36021;48.670;6.184;2023-04-06T01:18:37;13.73;;;6.03;;
50122;SDS011;36021;48.670;6.184;2023-04-06T01:21:16;15.95;;;5.47;;
50122;SDS011;36021;48.670;6.184;2023-04-06T01:24:00;14.65;;;5.78;;
50122;SDS011;36021;48.670;6.184;2023-04-06T01:26:33;10.85;;;4.78;;
50122;SDS011;36021;48.670;6.184;2023-04-06T01:29:04;10.35;;;5.55;;
50122;SDS011;36021;48.670;6.184;2023-04-06T01:31:30;11.70;;;4.75;;
50122;SDS011;36021;48.670;6.184;2023-04-06T01:33:56;11.02;;;4.65;;
50122;SDS011;36021;48.670;6.184;2023-04-06T01:36:24;8.98;;;4.28;;
50122;SDS011;36021;48.670;6.184;2023-04-06T01:39:03;11.77;;;4.75;;
50122;SDS011;36021;48.670;6.184;2023-04-06T01:41:34;8.85;;;5.00;;
50122;SDS011;36021;48.670;6.184;2023-04-06T01:44:00;12.13;;;5.00;;
50122;SDS011;36021;48.670;6.184;2023-04-06T01:46:29;11.55;;;4.97;;
50122;SDS011;36021;48.670;6.184;2023-04-06T01:48:56;15.18;;;5.03;;
50122;SDS011;36021;48.670;6.184;2023-04-06T01:51:47;11.32;;;5.55;;
50122;SDS011;36021;48.670;6.184;2023-04-06T01:54:13;11.02;;;4.90;;
50122;SDS011;36021;48.670;6.184;2023-04-06T01:56:51;9.68;;;4.88;;
50122;SDS011;36021;48.670;6.184;2023-04-06T01:59:40;9.63;;;5.20;;
50122;SDS011;36021;48.670;6.184;2023-04-06T02:02:13;19.23;;;5.20;;
50122;SDS011;36021;48.670;6.184;2023-04-06T02:04:45;10.18;;;4.93;;
50122;SDS011;36021;48.670;6.184;2023-04-06T02:07:13;12.93;;;5.45;;
50122;SDS011;36021;48.670;6.184;2023-04-06T02:09:40;12.35;;;5.50;;
50122;SDS011;36021;48.670;6.184;2023-04-06T02:12:10;12.55;;;5.68;;
50122;SDS011;36021;48.670;6.184;2023-04-06T02:14:36;16.88;;;5.43;;
50122;SDS011;36021;48.670;6.184;2023-04-06T02:17:03;11.30;;;4.85;;
50122;SDS011;36021;48.670;6.184;2023-04-06T02:19:28;7.50;;;4.55;;
50122;SDS011;36021;48.670;6.184;2023-04-06T02:21:54;11.02;;;4.13;;
50122;SDS011;36021;48.670;6.184;2023-04-06T02:24:19;9.02;;;5.05;;
50122;SDS011;36021;48.670;6.184;2023-04-06T02:26:45;15.32;;;5.78;;
50122;SDS011;36021;48.670;6.184;2023-04-06T02:29:11;12.45;;;5.57;;
50122;SDS011;36021;48.670;6.184;2023-04-06T02:31:37;14.05;;;4.63;;
50122;SDS011;36021;48.670;6.184;2023-04-06T02:34:03;13.40;;;4.45;;
50122;SDS011;36021;48.670;6.184;2023-04-06T02:36:30;6.70;;;4.10;;
50122;SDS011;36021;48.670;6.184;2023-04-06T02:38:56;7.88;;;5.40;;
50122;SDS011;36021;48.670;6.184;2023-04-06T02:41:23;8.05;;;4.55;;
50122;SDS011;36021;48.670;6.184;2023-04-06T02:43:49;8.85;;;4.55;;
50122;SDS011;36021;48.670;6.184;2023-04-06T02:46:23;12.23;;;4.80;;
50122;SDS011;36021;48.670;6.184;2023-04-06T02:48:49;10.73;;;5.13;;
50122;SDS011;36021;48.670;6.184;2023-04-06T02:51:14;13.85;;;5.25;;
50122;SDS011;36021;48.670;6.184;2023-04-06T02:53:44;10.27;;;5.10;;
50122;SDS011;36021;48.670;6.184;2023-04-06T02:56:11;9.93;;;5.30;;
50122;SDS011;36021;48.670;6.184;2023-04-06T02:58:46;15.95;;;5.25;;
50122;SDS011;36021;48.670;6.184;2023-04-06T03:01:12;13.43;;;4.68;;
50122;SDS011;36021;48.670;6.184;2023-04-06T03:03:39;10.73;;;4.70;;
50122;SDS011;36021;48.670;6.184;2023-04-06T03:06:10;14.18;;;5.07;;
50122;SDS011;36021;48.670;6.184;2023-04-06T03:08:38;10.90;;;4.65;;
50122;SDS011;36021;48.670;6.184;2023-04-06T03:11:04;13.40;;;5.13;;
50122;SDS011;36021;48.670;6.184;2023-04-06T03:13:36;11.60;;;4.70;;
50122;SDS011;36021;48.670;6.184;2023-04-06T03:16:04;12.02;;;4.82;;
50122;SDS011;36021;48.670;6.184;2023-04-06T03:18:30;10.85;;;5.15;;
50122;SDS011;36021;48.670;6.184;2023-04-06T03:20:57;9.50;;;4.68;;
50122;SDS011;36021;48.670;6.184;2023-04-06T03:23:33;13.27;;;5.25;;
50122;SDS011;36021;48.670;6.184;2023-04-06T03:26:01;8.77;;;5.00;;
50122;SDS011;36021;48.670;6.184;2023-04-06T03:28:28;12.00;;;4.75;;
50122;SDS011;36021;48.670;6.184;2023-04-06T03:30:59;11.75;;;5.03;;
50122;SDS011;36021;48.670;6.184;2023-04-06T03:33:47;11.65;;;4.97;;
50122;SDS011;36021;48.670;6.184;2023-04-06T03:36:20;11.43;;;4.88;;
50122;SDS011;36021;48.670;6.184;2023-04-06T03:38:48;13.55;;;5.60;;
50122;SDS011;36021;48.670;6.184;2023-04-06T03:41:15;10.10;;;4.45;;
50122;SDS011;36021;48.670;6.184;2023-04-06T03:43:52;12.25;;;4.70;;
50122;SDS011;36021;48.670;6.184;2023-04-06T03:46:18;15.68;;;4.68;;
50122;SDS011;36021;48.670;6.184;2023-04-06T03:48:43;17.45;;;4.78;;
50122;SDS011;36021;48.670;6.184;2023-04-06T03:51:09;7.95;;;4.30;;
50122;SDS011;36021;48.670;6.184;2023-04-06T03:53:35;13.32;;;4.80;;
50122;SDS011;36021;48.670;6.184;2023-04-06T03:56:02;12.30;;;5.18;;
50122;SDS011;36021;48.670;6.184;2023-04-06T03:58:28;8.00;;;4.00;;
50122;SDS011;36021;48.670;6.184;2023-04-06T04:00:55;10.98;;;4.93;;
50122;SDS011;36021;48.670;6.184;2023-04-06T04:03:22;6.10;;;2.73;;
50122;SDS011;36021;48.670;6.184;2023-04-06T04:05:53;6.82;;;3.88;;
50122;SDS011;36021;48.670;6.184;2023-04-06T04:08:23;9.10;;;4.20;;
50122;SDS011;36021;48.670;6.184;2023-04-06T04:10:50;11.93;;;4.30;;
50122;SDS011;36021;48.670;6.184;2023-04-06T04:13:17;9.57;;;4.10;;
50122;SDS011;36021;48.670;6.184;2023-04-06T04:15:46;8.25;;;3.60;;
50122;SDS011;36021;48.670;6.184;2023-04-06T04:18:13;14.18;;;4.50;;
50122;SDS011;36021;48.670;6.184;2023-04-06T04:20:39;8.43;;;4.53;;
50122;SDS011;36021;48.670;6.184;2023-04-06T04:23:05;11.82;;;4.50;;
50122;SDS011;36021;48.670;6.184;2023-04-06T04:25:32;11.95;;;4.57;;
50122;SDS011;36021;48.670;6.184;2023-04-06T04:27:58;10.35;;;4.15;;
50122;SDS011;36021;48.670;6.184;2023-04-06T04:30:24;13.50;;;4.80;;
50122;SDS011;36021;48.670;6.184;2023-04-06T04:32:50;10.20;;;4.10;;
50122;SDS011;36021;48.670;6.184;2023-04-06T04:35:20;12.30;;;4.78;;
50122;SDS011;36021;48.670;6.184;2023-04-06T04:37:47;14.48;;;4.82;;
50122;SDS011;36021;48.670;6.184;2023-04-06T04:40:13;8.82;;;5.00;;
50122;SDS011;36021;48.670;6.184;2023-04-06T04:42:49;10.35;;;4.55;;
50122;SDS011;36021;48.670;6.184;2023-04-06T04:45:24;14.45;;;4.47;;
50122;SDS011;36021;48.670;6.184;2023-04-06T04:47:50;13.60;;;5.07;;
50122;SDS011;36021;48.670;6.184;2023-04-06T04:50:17;12.93;;;5.10;;
50122;SDS011;36021;48.670;6.184;2023-04-06T04:52:45;9.10;;;4.07;;
50122;SDS011;36021;48.670;6.184;2023-04-06T04:55:18;8.30;;;4.43;;
50122;SDS011;36021;48.670;6.184;2023-04-06T04:57:48;12.07;;;4.13;;
50122;SDS011;36021;48.670;6.184;2023-04-06T05:00:18;10.63;;;4.28;;
50122;SDS011;36021;48.670;6.184;2023-04-06T05:02:47;10.80;;;4.43;;
50122;SDS011;36021;48.670;6.184;2023-04-06T05:05:18;10.60;;;4.38;;
50122;SDS011;36021;48.670;6.184;2023-04-06T05:07:44;10.10;;;4.90;;
50122;SDS011;36021;48.670;6.184;2023-04-06T05:10:19;9.02;;;4.65;;
50122;SDS011;36021;48.670;6.184;2023-04-06T05:12:58;8.23;;;3.85;;
50122;SDS011;36021;48.670;6.184;2023-04-06T05:15:25;5.50;;;3.90;;
50122;SDS011;36021;48.670;6.184;2023-04-06T05:17:56;8.75;;;4.10;;
50122;SDS011;36021;48.670;6.184;2023-04-06T05:20:29;9.50;;;3.72;;
50122;SDS011;36021;48.670;6.184;2023-04-06T05:22:54;8.40;;;3.90;;
50122;SDS011;36021;48.670;6.184;2023-04-06T05:25:20;6.40;;;3.80;;
50122;SDS011;36021;48.670;6.184;2023-04-06T05:30:26;14.70;;;3.97;;
50122;SDS011;36021;48.670;6.184;2023-04-06T05:32:52;9.45;;;4.32;;
50122;SDS011;36021;48.670;6.184;2023-04-06T05:35:18;7.25;;;4.07;;
50122;SDS011;36021;48.670;6.184;2023-04-06T05:37:51;15.18;;;4.63;;
50122;SDS011;36021;48.670;6.184;2023-04-06T05:42:46;11.60;;;4.75;;
50122;SDS011;36021;48.670;6.184;2023-04-06T05:45:16;16.13;;;4.85;;
50122;SDS011;36021;48.670;6.184;2023-04-06T05:47:48;10.85;;;5.28;;
50122;SDS011;36021;48.670;6.184;2023-04-06T05:50:31;7.25;;;4.28;;
50122;SDS011;36021;48.670;6.184;2023-04-06T05:52:57;13.70;;;4.47;;
50122;SDS011;36021;48.670;6.184;2023-04-06T05:55:27;8.77;;;4.63;;
50122;SDS011;36021;48.670;6.184;2023-04-06T05:58:06;9.23;;;4.32;;
50122;SDS011;36021;48.670;6.184;2023-04-06T06:00:32;7.22;;;3.75;;
50122;SDS011;36021;48.670;6.184;2023-04-06T06:03:05;10.50;;;4.38;;
50122;SDS011;36021;48.670;6.184;2023-04-06T06:05:33;13.65;;;5.30;;
50122;SDS011;36021;48.670;6.184;2023-04-06T06:08:06;7.43;;;5.15;;
50122;SDS011;36021;48.670;6.184;2023-04-06T06:10:34;8.57;;;4.30;;
50122;SDS011;36021;48.670;6.184;2023-04-06T06:13:00;14.90;;;4.40;;
50122;SDS011;36021;48.670;6.184;2023-04-06T06:15:27;16.33;;;5.03;;
50122;SDS011;36021;48.670;6.184;2023-04-06T06:17:52;10.32;;;4.57;;
50122;SDS011;36021;48.670;6.184;2023-04-06T06:20:18;14.43;;;5.40;;
50122;SDS011;36021;48.670;6.184;2023-04-06T06:22:44;12.13;;;5.50;;
50122;SDS011;36021;48.670;6.184;2023-04-06T06:25:15;15.45;;;5.15;;
50122;SDS011;36021;48.670;6.184;2023-04-06T06:27:41;11.48;;;5.00;;
50122;SDS011;36021;48.670;6.184;2023-04-06T06:30:08;14.25;;;4.85;;
50122;SDS011;36021;48.670;6.184;2023-04-06T06:32:38;12.02;;;4.65;;
50122;SDS011;36021;48.670;6.184;2023-04-06T06:35:06;10.40;;;4.35;;
50122;SDS011;36021;48.670;6.184;2023-04-06T06:37:33;16.58;;;5.55;;
50122;SDS011;36021;48.670;6.184;2023-04-06T06:40:01;16.02;;;5.40;;
50122;SDS011;36021;48.670;6.184;2023-04-06T06:42:26;18.65;;;5.57;;
50122;SDS011;36021;48.670;6.184;2023-04-06T06:45:06;10.98;;;4.70;;
50122;SDS011;36021;48.670;6.184;2023-04-06T06:47:33;16.05;;;5.70;;
50122;SDS011;36021;48.670;6.184;2023-04-06T06:49:58;11.18;;;4.70;;
50122;SDS011;36021;48.670;6.184;2023-04-06T06:52:24;11.23;;;5.13;;
50122;SDS011;36021;48.670;6.184;2023-04-06T06:54:50;12.38;;;5.15;;
50122;SDS011;36021;48.670;6.184;2023-04-06T06:57:18;8.20;;;4.25;;
50122;SDS011;36021;48.670;6.184;2023-04-06T06:59:47;10.52;;;4.50;;
50122;SDS011;36021;48.670;6.184;2023-04-06T07:02:12;7.15;;;4.72;;
50122;SDS011;36021;48.670;6.184;2023-04-06T07:04:38;14.98;;;5.30;;
50122;SDS011;36021;48.670;6.184;2023-04-06T07:07:04;10.98;;;4.43;;
50122;SDS011;36021;48.670;6.184;2023-04-06T07:09:30;8.38;;;3.67;;
50122;SDS011;36021;48.670;6.184;2023-04-06T07:11:57;10.10;;;3.88;;
50122;SDS011;36021;48.670;6.184;2023-04-06T07:14:23;9.77;;;4.22;;
50122;SDS011;36021;48.670;6.184;2023-04-06T07:16:49;9.25;;;4.00;;
50122;SDS011;36021;48.670;6.184;2023-04-06T07:19:15;11.35;;;4.20;;
50122;SDS011;36021;48.670;6.184;2023-04-06T07:21:41;9.43;;;4.25;;
50122;SDS011;36021;48.670;6.184;2023-04-06T07:24:07;10.25;;;4.35;;
50122;SDS011;36021;48.670;6.184;2023-04-06T07:26:32;10.07;;;3.88;;
50122;SDS011;36021;48.670;6.184;2023-04-06T07:28:58;13.32;;;4.32;;
50122;SDS011;36021;48.670;6.184;2023-04-06T07:31:25;7.43;;;4.30;;
50122;SDS011;36021;48.670;6.184;2023-04-06T07:33:52;12.32;;;4.90;;
50122;SDS011;36021;48.670;6.184;2023-04-06T07:36:19;8.57;;;3.47;;
50122;SDS011;36021;48.670;6.184;2023-04-06T07:38:45;10.23;;;3.67;;
50122;SDS011;36021;48.670;6.184;2023-04-06T07:41:13;9.45;;;4.25;;
50122;SDS011;36021;48.670;6.184;2023-04-06T07:43:39;8.98;;;4.22;;
50122;SDS011;36021;48.670;6.184;2023-04-06T07:46:06;10.23;;;3.50;;
50122;SDS011;36021;48.670;6.184;2023-04-06T07:48:32;13.52;;;4.78;;
50122;SDS011;36021;48.670;6.184;2023-04-06T07:51:04;9.80;;;3.63;;
50122;SDS011;36021;48.670;6.184;2023-04-06T07:53:34;9.70;;;3.70;;
50122;SDS011;36021;48.670;6.184;2023-04-06T07:56:00;9.15;;;4.45;;
50122;SDS011;36021;48.670;6.184;2023-04-06T07:58:29;11.90;;;4.50;;
50122;SDS011;36021;48.670;6.184;2023-04-06T08:00:55;8.25;;;3.50;;
50122;SDS011;36021;48.670;6.184;2023-04-06T08:03:23;8.30;;;3.80;;
50122;SDS011;36021;48.670;6.184;2023-04-06T08:05:51;7.95;;;3.58;;
50122;SDS011;36021;48.670;6.184;2023-04-06T08:08:18;12.52;;;4.07;;
50122;SDS011;36021;48.670;6.184;2023-04-06T08:10:47;7.80;;;3.70;;
50122;SDS011;36021;48.670;6.184;2023-04-06T08:13:13;13.45;;;4.18;;
50122;SDS011;36021;48.670;6.184;2023-04-06T08:15:39;9.60;;;3.65;;
50122;SDS011;36021;48.670;6.184;2023-04-06T08:18:05;5.95;;;3.38;;
50122;SDS011;36021;48.670;6.184;2023-04-06T08:20:31;6.00;;;3.05;;
50122;SDS011;36021;48.670;6.184;2023-04-06T08:22:56;11.27;;;4.13;;
50122;SDS011;36021;48.670;6.184;2023-04-06T08:25:22;6.10;;;3.47;;
50122;SDS011;36021;48.670;6.184;2023-04-06T08:27:48;5.57;;;3.15;;
50122;SDS011;36021;48.670;6.184;2023-04-06T08:30:13;6.65;;;3.10;;
50122;SDS011;36021;48.670;6.184;2023-04-06T08:32:41;5.43;;;3.03;;
50122;SDS011;36021;48.670;6.184;2023-04-06T08:35:07;10.50;;;3.65;;
50122;SDS011;36021;48.670;6.184;2023-04-06T08:37:33;8.05;;;2.47;;
50122;SDS011;36021;48.670;6.184;2023-04-06T08:40:01;10.13;;;3.22;;
50122;SDS011;36021;48.670;6.184;2023-04-06T08:42:28;6.22;;;2.20;;
50122;SDS011;36021;48.670;6.184;2023-04-06T08:47:23;3.80;;;2.40;;
50122;SDS011;36021;48.670;6.184;2023-04-06T08:49:49;4.68;;;3.08;;
50122;SDS011;36021;48.670;6.184;2023-04-06T08:52:17;9.05;;;3.20;;
50122;SDS011;36021;48.670;6.184;2023-04-06T08:54:43;5.75;;;2.70;;
50122;SDS011;36021;48.670;6.184;2023-04-06T08:57:09;9.57;;;3.47;;
50122;SDS011;36021;48.670;6.184;2023-04-06T08:59:37;5.43;;;3.35;;
50122;SDS011;36021;48.670;6.184;2023-04-06T09:02:04;7.38;;;3.22;;
50122;SDS011;36021;48.670;6.184;2023-04-06T09:04:33;5.65;;;3.10;;
50122;SDS011;36021;48.670;6.184;2023-04-06T09:07:01;6.47;;;3.08;;
50122;SDS011;36021;48.670;6.184;2023-04-06T09:09:26;4.70;;;2.53;;
50122;SDS011;36021;48.670;6.184;2023-04-06T09:11:52;4.90;;;2.60;;
50122;SDS011;36021;48.670;6.184;2023-04-06T09:14:34;5.03;;;2.80;;
50122;SDS011;36021;48.670;6.184;2023-04-06T09:17:01;8.20;;;2.90;;
50122;SDS011;36021;48.670;6.184;2023-04-06T09:19:27;8.23;;;3.67;;
50122;SDS011;36021;48.670;6.184;2023-04-06T09:22:01;5.93;;;2.60;;
50122;SDS011;36021;48.670;6.184;2023-04-06T09:24:42;12.23;;;3.00;;
50122;SDS011;36021;48.670;6.184;2023-04-06T09:27:09;8.48;;;3.35;;
50122;SDS011;36021;48.670;6.184;2023-04-06T09:29:35;9.60;;;3.28;;
50122;SDS011;36021;48.670;6.184;2023-04-06T09:32:05;4.85;;;2.85;;
50122;SDS011;36021;48.670;6.184;2023-04-06T09:34:32;5.13;;;2.60;;
50122;SDS011;36021;48.670;6.184;2023-04-06T09:36:58;5.28;;;2.58;;
50122;SDS011;36021;48.670;6.184;2023-04-06T09:39:25;6.53;;;3.30;;
50122;SDS011;36021;48.670;6.184;2023-04-06T09:41:52;7.18;;;3.38;;
50122;SDS011;36021;48.670;6.184;2023-04-06T09:44:23;7.53;;;3.78;;
50122;SDS011;36021;48.670;6.184;2023-04-06T09:46:49;4.65;;;3.00;;
50122;SDS011;36021;48.670;6.184;2023-04-06T09:49:15;5.80;;;3.15;;
50122;SDS011;36021;48.670;6.184;2023-04-06T09:51:41;9.32;;;3.53;;
50122;SDS011;36021;48.670;6.184;2023-04-06T09:54:12;9.40;;;2.88;;
50122;SDS011;36021;48.670;6.184;2023-04-06T09:56:45;7.43;;;2.78;;
50122;SDS011;36021;48.670;6.184;2023-04-06T09:59:14;5.30;;;3.72;;
50122;SDS011;36021;48.670;6.184;2023-04-06T10:01:46;8.30;;;3.72;;
50122;SDS011;36021;48.670;6.184;2023-04-06T10:04:37;4.82;;;2.97;;
50122;SDS011;36021;48.670;6.184;2023-04-06T10:07:09;8.35;;;3.38;;
50122;SDS011;36021;48.670;6.184;2023-04-06T10:12:04;5.28;;;2.90;;
50122;SDS011;36021;48.670;6.184;2023-04-06T10:14:31;8.20;;;3.38;;
50122;SDS011;36021;48.670;6.184;2023-04-06T10:17:01;7.45;;;3.10;;
50122;SDS011;36021;48.670;6.184;2023-04-06T10:22:02;6.90;;;2.92;;
50122;SDS011;36021;48.670;6.184;2023-04-06T10:24:30;6.22;;;2.67;;
50122;SDS011;36021;48.670;6.184;2023-04-06T10:26:57;5.10;;;2.67;;
50122;SDS011;36021;48.670;6.184;2023-04-06T10:29:27;5.80;;;2.45;;
50122;SDS011;36021;48.670;6.184;2023-04-06T10:31:53;5.72;;;2.58;;
50122;SDS011;36021;48.670;6.184;2023-04-06T10:34:20;3.35;;;2.58;;
50122;SDS011;36021;48.670;6.184;2023-04-06T10:36:47;10.32;;;2.72;;
50122;SDS011;36021;48.670;6.184;2023-04-06T10:39:13;5.90;;;2.63;;
50122;SDS011;36021;48.670;6.184;2023-04-06T10:41:45;8.95;;;3.00;;
50122;SDS011;36021;48.670;6.184;2023-04-06T10:44:23;6.60;;;2.40;;
50122;SDS011;36021;48.670;6.184;2023-04-06T10:46:53;5.03;;;2.72;;
50122;SDS011;36021;48.670;6.184;2023-04-06T10:49:20;5.88;;;3.42;;
50122;SDS011;36021;48.670;6.184;2023-04-06T10:51:51;5.47;;;2.85;;
50122;SDS011;36021;48.670;6.184;2023-04-06T10:54:19;5.90;;;2.70;;
50122;SDS011;36021;48.670;6.184;2023-04-06T10:56:46;4.32;;;2.35;;
50122;SDS011;36021;48.670;6.184;2023-04-06T10:59:12;8.45;;;2.10;;
50122;SDS011;36021;48.670;6.184;2023-04-06T11:01:37;4.60;;;2.50;;
50122;SDS011;36021;48.670;6.184;2023-04-06T11:04:03;6.65;;;3.08;;
50122;SDS011;36021;48.670;6.184;2023-04-06T11:06:29;5.88;;;2.50;;
50122;SDS011;36021;48.670;6.184;2023-04-06T11:09:00;5.07;;;2.45;;
50122;SDS011;36021;48.670;6.184;2023-04-06T11:11:26;4.55;;;2.42;;
50122;SDS011;36021;48.670;6.184;2023-04-06T11:13:52;4.35;;;2.08;;
50122;SDS011;36021;48.670;6.184;2023-04-06T11:16:27;4.03;;;1.70;;
50122;SDS011;36021;48.670;6.184;2023-04-06T11:18:56;3.10;;;1.50;;
50122;SDS011;36021;48.670;6.184;2023-04-06T11:24:13;4.28;;;1.90;;
50122;SDS011;36021;48.670;6.184;2023-04-06T11:26:44;2.97;;;1.45;;
50122;SDS011;36021;48.670;6.184;2023-04-06T11:29:18;4.38;;;1.85;;
50122;SDS011;36021;48.670;6.184;2023-04-06T11:31:47;2.80;;;1.60;;
50122;SDS011;36021;48.670;6.184;2023-04-06T11:34:16;3.95;;;1.90;;
50122;SDS011;36021;48.670;6.184;2023-04-06T11:36:44;3.65;;;1.38;;
50122;SDS011;36021;48.670;6.184;2023-04-06T11:39:12;2.03;;;1.23;;
50122;SDS011;36021;48.670;6.184;2023-04-06T11:41:38;3.20;;;1.17;;
50122;SDS011;36021;48.670;6.184;2023-04-06T11:44:05;2.72;;;1.40;;
50122;SDS011;36021;48.670;6.184;2023-04-06T11:46:31;3.28;;;1.20;;
50122;SDS011;36021;48.670;6.184;2023-04-06T11:48:58;3.58;;;1.30;;
50122;SDS011;36021;48.670;6.184;2023-04-06T11:51:25;2.70;;;0.90;;
50122;SDS011;36021;48.670;6.184;2023-04-06T11:53:52;2.03;;;1.20;;
50122;SDS011;36021;48.670;6.184;2023-04-06T11:56:28;2.08;;;0.90;;
50122;SDS011;36021;48.670;6.184;2023-04-06T11:58:56;1.20;;;0.90;;
50122;SDS011;36021;48.670;6.184;2023-04-06T12:03:51;1.38;;;0.85;;
50122;SDS011;36021;48.670;6.184;2023-04-06T12:06:17;1.48;;;0.85;;
50122;SDS011;36021;48.670;6.184;2023-04-06T12:08:44;1.58;;;0.93;;
50122;SDS011;36021;48.670;6.184;2023-04-06T12:11:10;4.00;;;0.95;;
50122;SDS011;36021;48.670;6.184;2023-04-06T12:13:37;0.90;;;0.90;;
50122;SDS011;36021;48.670;6.184;2023-04-06T12:16:03;0.77;;;0.77;;
50122;SDS011;36021;48.670;6.184;2023-04-06T12:18:29;2.67;;;1.30;;
50122;SDS011;36021;48.670;6.184;2023-04-06T12:20:55;1.75;;;1.10;;
50122;SDS011;36021;48.670;6.184;2023-04-06T12:23:21;1.25;;;0.70;;
50122;SDS011;36021;48.670;6.184;2023-04-06T12:25:47;2.95;;;1.10;;
50122;SDS011;36021;48.670;6.184;2023-04-06T12:28:12;2.63;;;1.00;;
50122;SDS011;36021;48.670;6.184;2023-04-06T12:30:38;3.08;;;0.60;;
50122;SDS011;36021;48.670;6.184;2023-04-06T12:33:07;0.57;;;0.57;;
50122;SDS011;36021;48.670;6.184;2023-04-06T12:35:33;1.58;;;0.80;;
50122;SDS011;36021;48.670;6.184;2023-04-06T12:37:59;2.58;;;0.98;;
50122;SDS011;36021;48.670;6.184;2023-04-06T12:40:27;1.67;;;0.60;;
50122;SDS011;36021;48.670;6.184;2023-04-06T12:42:53;0.52;;;0.52;;
50122;SDS011;36021;48.670;6.184;2023-04-06T12:45:20;0.50;;;0.50;;
50122;SDS011;36021;48.670;6.184;2023-04-06T12:47:45;0.90;;;0.60;;
50122;SDS011;36021;48.670;6.184;2023-04-06T12:50:11;0.52;;;0.52;;
50122;SDS011;36021;48.670;6.184;2023-04-06T12:52:37;4.18;;;0.50;;
50122;SDS011;36021;48.670;6.184;2023-04-06T12:55:03;1.13;;;0.57;;
50122;SDS011;36021;48.670;6.184;2023-04-06T12:57:30;2.55;;;0.90;;
50122;SDS011;36021;48.670;6.184;2023-04-06T12:59:58;1.63;;;0.85;;
50122;SDS011;36021;48.670;6.184;2023-04-06T13:02:25;3.20;;;1.08;;
50122;SDS011;36021;48.670;6.184;2023-04-06T13:04:52;2.55;;;1.20;;
50122;SDS011;36021;48.670;6.184;2023-04-06T13:07:18;4.03;;;1.20;;
50122;SDS011;36021;48.670;6.184;2023-04-06T13:09:43;2.33;;;1.25;;
50122;SDS011;36021;48.670;6.184;2023-04-06T13:12:09;1.80;;;1.38;;
50122;SDS011;36021;48.670;6.184;2023-04-06T13:14:34;3.28;;;1.45;;
50122;SDS011;36021;48.670;6.184;2023-04-06T13:17:00;2.70;;;1.23;;
50122;SDS011;36021;48.670;6.184;2023-04-06T13:19:26;2.50;;;1.20;;
50122;SDS011;36021;48.670;6.184;2023-04-06T13:21:51;2.72;;;1.10;;
50122;SDS011;36021;48.670;6.184;2023-04-06T13:24:19;7.72;;;1.92;;
50122;SDS011;36021;48.670;6.184;2023-04-06T13:26:45;2.13;;;1.25;;
50122;SDS011;36021;48.670;6.184;2023-04-06T13:29:11;5.32;;;1.20;;
50122;SDS011;36021;48.670;6.184;2023-04-06T13:31:37;1.45;;;1.35;;
50122;SDS011;36021;48.670;6.184;2023-04-06T13:34:05;1.92;;;1.13;;
50122;SDS011;36021;48.670;6.184;2023-04-06T13:36:31;1.00;;;0.90;;
50122;SDS011;36021;48.670;6.184;2023-04-06T13:38:59;4.20;;;2.13;;
50122;SDS011;36021;48.670;6.184;2023-04-06T13:41:27;0.95;;;0.93;;
50122;SDS011;36021;48.670;6.184;2023-04-06T13:43:52;3.03;;;1.30;;
50122;SDS011;36021;48.670;6.184;2023-04-06T13:46:18;2.75;;;1.23;;
50122;SDS011;36021;48.670;6.184;2023-04-06T13:48:44;2.63;;;1.45;;
50122;SDS011;36021;48.670;6.184;2023-04-06T13:51:13;2.60;;;1.02;;
50122;SDS011;36021;48.670;6.184;2023-04-06T13:53:40;2.83;;;1.45;;
50122;SDS011;36021;48.670;6.184;2023-04-06T13:56:06;2.97;;;0.93;;
50122;SDS011;36021;48.670;6.184;2023-04-06T13:58:32;1.83;;;0.93;;
50122;SDS011;36021;48.670;6.184;2023-04-06T14:01:04;1.10;;;0.93;;
50122;SDS011;36021;48.670;6.184;2023-04-06T14:03:32;2.47;;;1.20;;
50122;SDS011;36021;48.670;6.184;2023-04-06T14:05:58;4.20;;;1.40;;
50122;SDS011;36021;48.670;6.184;2023-04-06T14:08:24;1.83;;;1.27;;
50122;SDS011;36021;48.670;6.184;2023-04-06T14:10:49;3.45;;;0.93;;
50122;SDS011;36021;48.670;6.184;2023-04-06T14:13:15;5.30;;;1.00;;
50122;SDS011;36021;48.670;6.184;2023-04-06T14:15:42;3.10;;;1.42;;
50122;SDS011;36021;48.670;6.184;2023-04-06T14:18:08;1.88;;;1.20;;
50122;SDS011;36021;48.670;6.184;2023-04-06T14:20:34;2.33;;;1.08;;
50122;SDS011;36021;48.670;6.184;2023-04-06T14:23:03;1.83;;;1.38;;
50122;SDS011;36021;48.670;6.184;2023-04-06T14:25:28;3.03;;;1.27;;
50122;SDS011;36021;48.670;6.184;2023-04-06T14:27:57;2.40;;;1.85;;
50122;SDS011;36021;48.670;6.184;2023-04-06T14:30:22;3.63;;;1.48;;
50122;SDS011;36021;48.670;6.184;2023-04-06T14:32:48;3.58;;;1.65;;
50122;SDS011;36021;48.670;6.184;2023-04-06T14:35:13;7.43;;;1.52;;
50122;SDS011;36021;48.670;6.184;2023-04-06T14:37:39;1.17;;;0.88;;
50122;SDS011;36021;48.670;6.184;2023-04-06T14:40:07;3.53;;;1.50;;
50122;SDS011;36021;48.670;6.184;2023-04-06T14:42:33;2.45;;;1.38;;
50122;SDS011;36021;48.670;6.184;2023-04-06T14:45:01;4.75;;;1.35;;
50122;SDS011;36021;48.670;6.184;2023-04-06T14:47:26;2.95;;;1.67;;
50122;SDS011;36021;48.670;6.184;2023-04-06T14:49:52;2.70;;;1.52;;
50122;SDS011;36021;48.670;6.184;2023-04-06T14:52:18;2.15;;;1.50;;
50122;SDS011;36021;48.670;6.184;2023-04-06T14:54:44;3.10;;;1.50;;
50122;SDS011;36021;48.670;6.184;2023-04-06T14:57:09;1.75;;;1.58;;
50122;SDS011;36021;48.670;6.184;2023-04-06T14:59:36;2.38;;;1.42;;
50122;SDS011;36021;48.670;6.184;2023-04-06T15:02:02;5.22;;;1.70;;
50122;SDS011;36021;48.670;6.184;2023-04-06T15:04:28;2.05;;;1.48;;
50122;SDS011;36021;48.670;6.184;2023-04-06T15:06:55;2.30;;;1.27;;